Latest Coastal Weather Observations for Cerberus

IDV60701

Issued at 6:22 am EDT Monday 20 November 2017 (issued every 10 minutes, with the page automatically refreshed every 10 minutes)

About coastal observations | Map of coastal stations | Coastal observations for VIC | Marine services | Other Formats
Station Details ID: 086361 Name: CERBERUS Lat: -38.36 Lon: 145.18 Height: 12.69 m
Data from the previous 72 hours. | See also: Recent months at Cerberus
Date/Time
EDT
Temp
°C
Wind Pressure Rain since
9am
mm
Weather Cloud Vis
km
Sea
Height
m
Swell
Dir  Spd
kts
Gust
kts
hPa Trend Height
m
Period
s
Dir
20/06:00am 12.9 CALM 0 0 1021.6 - 0.0 - - - - - - -
20/05:30am 13.6 CALM 0 0 1021.4 - 0.0 - - - - - - -
20/05:00am 14.3 CALM 0 0 1021.0 - 0.0 - - - - - - -
20/04:30am 13.7 SSW 1 2 1020.9 - 0.0 - - - - - - -
20/04:00am 14.1 SSW 2 2 1020.8 - 0.0 - - - - - - -
20/03:30am 13.8 CALM 0 1 1020.7 - 0.0 - - - - - - -
20/03:00am 14.2 SSW 3 3 1020.7 - 0.0 - - - - - - -
20/02:30am 14.0 SSE 1 3 1020.5 - 0.0 - - - - - - -
20/02:00am 14.1 CALM 0 0 1020.6 - 0.0 - - - - - - -
20/01:30am 14.6 SSE 1 2 1020.8 - 0.0 - - - - - - -
20/01:00am 14.5 SSE 1 3 1020.7 - 0.0 - - - - - - -
20/12:30am 15.1 SSE 1 2 1020.7 - 0.0 - - - - - - -
20/12:00am 15.1 SSE 1 3 1020.8 - 0.0 - - - - - - -
 
Date/Time
EDT
Temp
°C
Wind Pressure Rain since
9am
mm
Weather Cloud Vis
km
Sea
Height
m
Swell
Dir  Spd
kts
Gust
kts
hPa Trend Height
m
Period
s
Dir
19/11:30pm 15.7 CALM 0 0 1020.7 - 0.0 - - - - - - -
19/11:00pm 15.8 CALM 0 1 1020.7 - 0.0 - - - - - - -
19/10:30pm 16.1 CALM 0 0 1020.8 - 0.0 - - - - - - -
19/10:00pm 17.0 CALM 0 0 1020.7 - 0.0 - - - - - - -
19/09:30pm 17.7 CALM 0 0 1020.5 - 0.0 - - - - - - -
19/09:00pm 18.5 SSE 1 2 1020.5 - 0.0 - - - - - - -
19/08:30pm 19.7 SSE 3 5 1020.5 - 0.0 - - - - - - -
19/08:00pm 20.9 ESE 3 6 1020.3 - 0.0 - - - - - - -
19/07:30pm 21.6 ESE 5 7 1020.2 - 0.0 - - - - - - -
19/07:00pm 22.6 SE 6 11 1020.3 - 0.0 - - - - - - -
19/06:30pm 23.3 SSE 6 11 1020.3 - 0.0 - - - - - - -
19/06:00pm 23.1 SSE 9 13 1020.2 - 0.0 - - - - - - -
19/05:30pm 23.4 SSE 8 13 1020.2 - 0.0 - - - - - - -
19/05:00pm 23.7 SSE 8 15 1020.2 - 0.0 - - - - - - -
19/04:30pm 24.3 SSE 9 14 1020.2 - 0.0 - - - - - - -
19/04:00pm 24.2 S 10 15 1020.4 - 0.0 - - - - - - -
19/03:30pm 24.6 SSE 9 15 1020.7 - 0.0 - - - - - - -
19/03:00pm 24.2 S 11 15 1020.8 - 0.0 - - - - - - -
19/02:30pm 25.2 S 9 13 1020.9 - 0.0 - - - - - - -
19/02:00pm 24.6 S 10 15 1020.9 - 0.0 - - - - - - -
19/01:30pm 23.6 S 8 13 1020.9 - 0.0 - - - - - - -
19/01:00pm 26.6 NE 4 10 1020.7 - 0.0 - - - - - - -
19/12:30pm 26.1 ENE 5 9 1020.8 - 0.0 - - - - - - -
19/12:00pm 25.6 ENE 5 8 1021.0 - 0.0 - - - - - - -
19/11:30am 25.4 NE 5 9 1021.2 - 0.0 - - - - - - -
19/11:00am 25.1 N 3 7 1021.2 - 0.0 - - - - - - -
19/10:30am 24.2 NE 4 7 1021.2 - 0.0 - - - - - - -
19/10:00am 22.9 E 3 5 1021.3 - 0.0 - - - - - - -
19/09:30am 22.5 E 3 5 1021.1 - 0.0 - - - - - - -
19/09:00am 20.7 ENE 3 5 1021.1 - 0.0 - - - - - - -
19/08:30am 20.5 NW 2 3 1020.9 - 0.0 - - - - - - -
19/08:00am 19.3 W 2 3 1020.5 - 0.0 - - - - - - -
19/07:30am 17.9 CALM 0 0 1020.0 - 0.0 - - - - - - -
19/07:00am 15.4 CALM 0 0 1019.8 - 0.0 - - - - - - -
19/06:30am 13.3 W 1 2 1019.5 - 0.0 - - - - - - -
19/06:00am 12.8 CALM 0 0 1019.1 - 0.0 - - - - - - -
19/05:30am 12.9 CALM 0 1 1018.8 - 0.0 - - - - - - -
19/05:00am 13.4 W 1 3 1018.6 - 0.0 - - - - - - -
19/04:30am 12.9 W 1 2 1018.5 - 0.0 - - - - - - -
19/04:00am 13.3 CALM 0 0 1018.5 - 0.0 - - - - - - -
19/03:30am 13.9 CALM 0 0 1018.3 - 0.0 - - - - - - -
19/03:00am 14.3 CALM 0 0 1018.3 - 0.0 - - - - - - -
19/02:30am 13.3 W 1 2 1018.3 - 0.0 - - - - - - -
19/02:00am 15.0 CALM 0 0 1018.3 - 0.0 - - - - - - -
19/01:30am 14.5 CALM 0 0 1018.4 - 0.0 - - - - - - -
19/01:00am 15.1 W 1 2 1018.3 - 0.0 - - - - - - -
19/12:30am 15.9 CALM 0 1 1018.4 - 0.0 - - - - - - -
19/12:00am 16.0 CALM 0 0 1018.2 - 0.0 - - - - - - -
 
Date/Time
EDT
Temp
°C
Wind Pressure Rain since
9am
mm
Weather Cloud Vis
km
Sea
Height
m
Swell
Dir  Spd
kts
Gust
kts
hPa Trend Height
m
Period
s
Dir
18/11:30pm 16.5 CALM 0 1 1018.2 - 0.0 - - - - - - -
18/11:00pm 17.4 CALM 0 1 1017.9 - 0.0 - - - - - - -
18/10:30pm 17.4 SSE 1 3 1017.9 - 0.0 - - - - - - -
18/10:00pm 18.3 CALM 0 0 1017.6 - 0.0 - - - - - - -
18/09:30pm 18.9 CALM 0 1 1017.3 - 0.0 - - - - - - -
18/09:00pm 19.6 SSE 2 3 1017.1 - 0.0 - - - - - - -
18/08:30pm 21.5 SSE 3 3 1016.8 - 0.0 - - - - - - -
18/08:00pm 22.7 SSE 2 3 1016.5 - 0.0 - - - - - - -
18/07:30pm 24.1 SE 3 4 1016.3 - 0.0 - - - - - - -
18/07:00pm 23.2 NNE 3 5 1016.3 - 0.0 - - - - - - -
18/06:30pm 23.4 ESE 5 9 1016.2 - 0.0 - - - - - - -
18/06:00pm 24.7 ESE 6 10 1015.9 - 0.0 - - - - - - -
18/05:30pm 25.7 SE 9 15 1015.5 - 0.0 - - - - - - -
18/05:00pm 25.9 SE 10 16 1015.2 - 0.0 - - - - - - -
18/04:30pm 25.7 SE 11 17 1015.3 - 0.0 - - - - - - -
18/04:00pm 26.2 SE 9 15 1015.3 - 0.0 - - - - - - -
18/03:30pm 25.6 SE 7 13 1015.5 - 0.0 - - - - - - -
18/03:00pm 26.5 SSE 8 12 1015.6 - 0.0 - - - - - - -
18/02:30pm 27.1 SE 5 8 1015.9 - 0.0 - - - - - - -
18/02:00pm 26.9 S 7 13 1016.1 - 0.0 - - - - - - -
18/01:30pm 26.4 SW 5 9 1016.4 - 0.0 - - - - - - -
18/01:00pm 26.6 E 4 8 1016.7 - 0.0 - - - - - - -
18/12:30pm 25.8 E 4 8 1016.8 - 0.0 - - - - - - -
18/12:00pm 25.2 ESE 4 6 1016.7 - 0.0 - - - - - - -
18/11:30am 24.9 SE 5 8 1016.8 - 0.0 - - - - - - -
18/11:00am 23.8 SE 5 8 1016.7 - 0.0 - - - - - - -
18/10:30am 23.1 NE 3 7 1016.9 - 0.0 - - - - - - -
18/10:00am 21.6 NE 4 7 1016.9 - 0.0 - - - - - - -
18/09:30am 20.8 NE 5 9 1017.0 - 0.0 - - - - - - -
18/09:00am 19.6 NNE 4 7 1017.0 - 4.2 - - - - - - -
18/08:30am 18.7 NE 5 7 1016.8 - 4.2 - - - - - - -
18/08:00am 18.2 NE 3 7 1016.6 - 4.2 - - - - - - -
18/07:30am 17.4 ENE 3 5 1016.3 - 4.2 - - - - - - -
18/07:00am 15.8 NE 3 5 1016.2 - 4.2 - - - - - - -
18/06:30am 13.2 NE 2 3 1015.9 - 4.2 - - - - - - -
18/06:00am 13.2 NE 2 2 1015.4 - 4.2 - - - - - - -
18/05:30am 13.8 CALM 0 2 1015.2 - 4.2 - - - - - - -
18/05:00am 14.1 CALM 0 0 1015.4 - 4.2 - - - - - - -
18/04:30am 14.0 CALM 0 0 1014.8 - 4.2 - - - - - - -
18/04:00am 14.3 SE 1 3 1014.4 - 4.2 - - - - - - -
18/03:30am 14.2 SE 2 4 1014.2 - 4.2 - - - - - - -
18/03:00am 14.1 CALM 0 3 1014.5 - 4.2 - - - - - - -
18/02:30am 14.0 SE 1 3 1014.6 - 4.2 - - - - - - -
18/02:00am 13.8 CALM 0 0 1014.2 - 4.2 - - - - - - -
18/01:30am 14.4 SE 1 2 1014.1 - 4.2 - - - - - - -
18/01:00am 14.6 SE 2 3 1013.9 - 4.2 - - - - - - -
18/12:30am 14.4 SE 2 3 1014.0 - 4.0 - - - - - - -
18/12:00am 14.8 SE 2 2 1014.0 - 4.0 - - - - - - -
 
Date/Time
EDT
Temp
°C
Wind Pressure Rain since
9am
mm
Weather Cloud Vis
km
Sea
Height
m
Swell
Dir  Spd
kts
Gust
kts
hPa Trend Height
m
Period
s
Dir
17/11:30pm 15.4 CALM 0 0 1013.9 - 4.0 - - - - - - -
17/11:00pm 15.9 SE 2 4 1014.0 - 4.0 - - - - - - -
17/10:30pm 15.8 SW 2 3 1013.8 - 4.0 - - - - - - -
17/10:00pm 16.1 SW 3 4 1013.3 - 4.0 - - - - - - -
17/09:30pm 16.5 CALM 0 0 1013.2 - 4.0 - - - - - - -
17/09:00pm 16.9 E 2 4 1013.3 - 4.0 - - - - - - -
17/08:30pm 18.2 E 1 1 1013.1 - 4.0 - - - - - - -
17/08:00pm 19.3 NNE 2 3 1013.0 - 4.0 - - - - - - -
17/07:30pm 20.1 CALM 0 1 1012.9 - 4.0 - - - - - - -
17/07:00pm 20.5 NNE 1 2 1012.3 - 4.0 - - - - - - -
17/06:30pm 21.0 ESE 3 5 1012.5 - 4.0 - - - - - - -
17/06:00pm 21.8 SE 4 8 1012.3 - 4.0 - - - - - - -
17/05:30pm 21.3 ESE 5 7 1012.7 - 4.0 - - - - - - -
17/05:00pm 20.3 SSE 1 3 1013.2 - 4.0 - - - - - - -
17/04:30pm 20.5 SSE 2 5 1013.5 - 4.0 - - - - - - -
17/04:00pm 20.7 S 7 14 1013.3 - 4.0 - - - - - - -
17/03:30pm 20.7 S 4 6 1013.5 - 4.0 - - - - - - -
17/03:00pm 19.1 SW 5 8 1013.0 - 4.0 Recent precip. - - - - - -
17/02:30pm 16.6 WNW 4 8 1013.7 - 4.0 - - - - - - -
17/02:00pm 18.1 WNW 10 15 1013.8 - 0.2 - - - - - - -
17/01:30pm 22.9 WSW 7 10 1012.7 - 0.0 - - - - - - -
17/01:00pm 24.7 SSW 7 11 1012.6 - 0.0 - - - - - - -
17/12:30pm 24.1 SSE 6 10 1013.2 - 0.0 - - - - - - -
17/12:00pm 23.8 ESE 6 8 1013.6 - 0.0 - - - - - - -
17/11:30am 23.4 SE 5 9 1013.9 - 0.0 - - - - - - -
17/11:00am 22.6 ESE 3 5 1014.1 - 0.0 - - - - - - -
17/10:30am 22.4 ESE 3 5 1014.2 - 0.0 - - - - - - -
17/10:00am 21.5 ESE 3 4 1013.9 - 0.0 - - - - - - -
17/09:30am 20.5 NE 3 6 1013.9 - 0.0 - - - - - - -
17/09:00am 19.1 NE 3 4 1014.0 - 10.8 - - - - - - -
17/08:30am 18.4 E 4 6 1013.9 - 10.8 - - - - - - -
17/08:00am 17.4 E 1 4 1013.6 - 10.8 - - - - - - -
17/07:30am 16.1 CALM 0 0 1013.4 - 10.8 - - - - - - -
17/07:00am 14.5 S 1 2 1013.2 - 10.8 - - - - - - -
17/06:30am 13.7 CALM 0 1 1012.9 - 10.8 - - - - - - -

Other Formats:

Comma delimited format used in spreadsheet applications
http://www.bom.gov.au/fwo/IDV60701/IDV60701.94898.axf

JavaScript Object Notation format (JSON) in row-major order
http://www.bom.gov.au/fwo/IDV60701/IDV60701.94898.json